Time;durP1;ratioP1;P1;durP2;ratioP2;P2;SDS_P1;SDS_P2;PMS_P1;PMS_P2;Temp;Humidity;BMP_temperature;BMP_pressure;BME280_temperature;BME280_humidity;BME280_pressure;Samples;Min_cycle;Max_cycle;Signal;HPM_P1;HPM_P2
2023/07/21 00:00:58;;;;;;;0.10;0.10;;;;;;;;;;5119685;27;20043;-52
2023/07/21 00:03:24;;;;;;;0.10;0.10;;;;;;;;;;5112350;28;20380;-52
2023/07/21 00:05:50;;;;;;;0.10;0.10;;;;;;;;;;5130456;28;20506;-53
2023/07/21 00:08:16;;;;;;;0.10;0.10;;;;;;;;;;5130986;27;20044;-53
2023/07/21 00:10:43;;;;;;;0.10;0.10;;;;;;;;;;5120749;27;20047;-53
2023/07/21 00:13:08;;;;;;;0.10;0.10;;;;;;;;;;5129968;28;20047;-53
2023/07/21 00:15:34;;;;;;;0.10;0.10;;;;;;;;;;5132066;27;20059;-51
2023/07/21 00:17:59;;;;;;;0.10;0.10;;;;;;;;;;5134448;27;20487;-52
2023/07/21 00:20:25;;;;;;;0.10;0.10;;;;;;;;;;5133629;27;20039;-52
2023/07/21 00:22:51;;;;;;;0.10;0.10;;;;;;;;;;5134385;27;20051;-51
2023/07/21 00:25:17;;;;;;;0.10;0.10;;;;;;;;;;5134032;28;20086;-52
2023/07/21 00:27:43;;;;;;;0.10;0.10;;;;;;;;;;5134443;27;20078;-52
2023/07/21 00:30:09;;;;;;;0.10;0.10;;;;;;;;;;5130045;27;20047;-53
2023/07/21 00:32:35;;;;;;;0.10;0.10;;;;;;;;;;5113577;28;20251;-52
2023/07/21 00:35:01;;;;;;;0.10;0.10;;;;;;;;;;5128257;28;20075;-53
2023/07/21 00:37:27;;;;;;;0.10;0.10;;;;;;;;;;5134004;27;20085;-52
2023/07/21 00:39:52;;;;;;;0.15;0.15;;;;;;;;;;5132728;27;20047;-53
2023/07/21 00:42:18;;;;;;;0.10;0.10;;;;;;;;;;5133612;28;20440;-53
2023/07/21 00:44:44;;;;;;;0.10;0.10;;;;;;;;;;5133303;28;20461;-53
2023/07/21 00:47:10;;;;;;;0.10;0.10;;;;;;;;;;5132922;28;20062;-51
2023/07/21 00:49:37;;;;;;;0.10;0.10;;;;;;;;;;5133521;28;20158;-52
2023/07/21 00:52:02;;;;;;;0.15;0.13;;;;;;;;;;5133289;28;20047;-53
2023/07/21 00:54:28;;;;;;;0.10;0.10;;;;;;;;;;5133512;28;20043;-53
2023/07/21 00:56:54;;;;;;;0.10;0.10;;;;;;;;;;5132906;28;20059;-53
2023/07/21 00:59:20;;;;;;;0.10;0.10;;;;;;;;;;5133322;28;20078;-53
2023/07/21 01:01:45;;;;;;;0.10;0.10;;;;;;;;;;5133030;27;20082;-53
2023/07/21 01:04:11;;;;;;;0.10;0.10;;;;;;;;;;5133482;28;20050;-52
2023/07/21 01:06:38;;;;;;;0.10;0.10;;;;;;;;;;5133142;28;20057;-53
2023/07/21 01:09:06;;;;;;;0.10;0.10;;;;;;;;;;5133157;28;20039;-53
2023/07/21 01:11:33;;;;;;;0.10;0.10;;;;;;;;;;5132284;28;20087;-52
2023/07/21 01:14:00;;;;;;;0.10;0.10;;;;;;;;;;5132845;28;20046;-53
2023/07/21 01:16:26;;;;;;;0.10;0.10;;;;;;;;;;5132160;28;20046;-53
2023/07/21 01:18:53;;;;;;;0.10;0.10;;;;;;;;;;5133036;28;20078;-52
2023/07/21 01:21:25;;;;;;;0.10;0.10;;;;;;;;;;5132113;28;20096;-52
2023/07/21 01:23:55;;;;;;;0.10;0.10;;;;;;;;;;5132825;28;20090;-53
2023/07/21 01:26:22;;;;;;;0.10;0.10;;;;;;;;;;5132312;27;20043;-53
2023/07/21 01:28:48;;;;;;;0.10;0.10;;;;;;;;;;5133228;27;20096;-52
2023/07/21 01:31:14;;;;;;;0.10;0.10;;;;;;;;;;5119088;27;20047;-52
2023/07/21 01:33:41;;;;;;;0.10;0.10;;;;;;;;;;5112303;28;21407;-52
2023/07/21 01:36:07;;;;;;;0.10;0.10;;;;;;;;;;5121068;28;20123;-52
2023/07/21 01:38:33;;;;;;;0.10;0.10;;;;;;;;;;5130952;27;20380;-53
2023/07/21 01:40:58;;;;;;;0.10;0.10;;;;;;;;;;5124256;27;20055;-53
2023/07/21 01:43:24;;;;;;;0.10;0.10;;;;;;;;;;5132716;28;20133;-53
2023/07/21 01:45:50;;;;;;;0.10;0.10;;;;;;;;;;5132509;28;20096;-53
2023/07/21 01:48:15;;;;;;;0.10;0.10;;;;;;;;;;5132060;28;20043;-53
2023/07/21 01:50:42;;;;;;;0.10;0.10;;;;;;;;;;5132144;28;20095;-53
2023/07/21 01:53:12;;;;;;;0.10;0.10;;;;;;;;;;5132771;28;20058;-53
2023/07/21 01:55:41;;;;;;;0.10;0.10;;;;;;;;;;5132539;28;20050;-52
2023/07/21 01:58:07;;;;;;;0.10;0.10;;;;;;;;;;5132007;28;20086;-52
2023/07/21 02:00:36;;;;;;;0.10;0.10;;;;;;;;;;5124277;28;20403;-52
2023/07/21 02:03:17;;;;;;;0.10;0.10;;;;;;;;;;5111651;28;20074;-52
2023/07/21 02:05:43;;;;;;;0.10;0.10;;;;;;;;;;5112013;28;20066;-52
2023/07/21 02:08:10;;;;;;;0.10;0.10;;;;;;;;;;5112068;28;20487;-52
2023/07/21 02:10:36;;;;;;;0.10;0.10;;;;;;;;;;5111452;28;20521;-52
2023/07/21 02:13:02;;;;;;;0.10;0.10;;;;;;;;;;5112070;28;20047;-51
2023/07/21 02:15:27;;;;;;;0.10;0.10;;;;;;;;;;5112135;28;20051;-52
2023/07/21 02:17:53;;;;;;;0.10;0.10;;;;;;;;;;5112003;28;20055;-53
2023/07/21 02:20:19;;;;;;;0.10;0.10;;;;;;;;;;5111539;28;20043;-53
2023/07/21 02:22:44;;;;;;;0.10;0.10;;;;;;;;;;5113591;28;20047;-53
2023/07/21 02:25:10;;;;;;;0.10;0.10;;;;;;;;;;5132216;27;20047;-61
2023/07/21 02:27:36;;;;;;;0.10;0.10;;;;;;;;;;5131659;27;20059;-60
2023/07/21 02:30:02;;;;;;;0.10;0.10;;;;;;;;;;5129272;27;20078;-60
2023/07/21 02:32:28;;;;;;;0.10;0.10;;;;;;;;;;5111841;28;20471;-60
2023/07/21 02:34:53;;;;;;;0.10;0.10;;;;;;;;;;5111642;28;20039;-61
2023/07/21 02:37:19;;;;;;;0.10;0.10;;;;;;;;;;5117043;27;20066;-61
2023/07/21 02:39:45;;;;;;;0.10;0.10;;;;;;;;;;5122699;27;20069;-60
2023/07/21 02:42:10;;;;;;;0.10;0.10;;;;;;;;;;5131810;28;20483;-60
2023/07/21 02:44:36;;;;;;;0.10;0.10;;;;;;;;;;5131874;27;20051;-61
2023/07/21 02:47:01;;;;;;;0.10;0.10;;;;;;;;;;5131937;27;20047;-60
2023/07/21 02:49:29;;;;;;;0.10;0.10;;;;;;;;;;5131856;27;20471;-61
2023/07/21 02:51:54;;;;;;;0.10;0.10;;;;;;;;;;5112289;27;20558;-60
2023/07/21 02:54:20;;;;;;;0.10;0.10;;;;;;;;;;5111657;28;20075;-61
2023/07/21 02:56:45;;;;;;;0.10;0.10;;;;;;;;;;5111731;28;20460;-60
2023/07/21 02:59:11;;;;;;;0.10;0.10;;;;;;;;;;5110928;28;20172;-60
2023/07/21 03:01:36;;;;;;;0.10;0.10;;;;;;;;;;5129306;28;20556;-60
2023/07/21 03:04:03;;;;;;;0.10;0.10;;;;;;;;;;5132041;27;20047;-60
2023/07/21 03:06:30;;;;;;;0.10;0.10;;;;;;;;;;5132101;27;20047;-60
2023/07/21 03:08:56;;;;;;;0.10;0.10;;;;;;;;;;5131769;27;20499;-61
2023/07/21 03:11:22;;;;;;;0.10;0.10;;;;;;;;;;5116563;27;20043;-61
2023/07/21 03:13:47;;;;;;;0.10;0.10;;;;;;;;;;5111223;28;20552;-60
2023/07/21 03:16:13;;;;;;;0.10;0.10;;;;;;;;;;5111284;28;20414;-61
2023/07/21 03:18:39;;;;;;;0.10;0.10;;;;;;;;;;5111130;28;20058;-61
2023/07/21 03:21:04;;;;;;;0.10;0.10;;;;;;;;;;5110950;28;20419;-60
2023/07/21 03:23:30;;;;;;;0.10;0.10;;;;;;;;;;5111060;28;20044;-61
2023/07/21 03:25:56;;;;;;;0.10;0.10;;;;;;;;;;5123419;28;20055;-60
2023/07/21 03:28:21;;;;;;;0.10;0.10;;;;;;;;;;5131244;27;20480;-60
2023/07/21 03:31:02;;;;;;;0.10;0.10;;;;;;;;;;5128771;28;20419;-60
2023/07/21 03:33:28;;;;;;;0.10;0.10;;;;;;;;;;5131164;28;20047;-61
2023/07/21 03:35:58;;;;;;;0.10;0.10;;;;;;;;;;5130817;28;20054;-60
2023/07/21 03:38:23;;;;;;;0.10;0.10;;;;;;;;;;5130792;27;20083;-61
2023/07/21 03:40:58;;;;;;;0.10;0.10;;;;;;;;;;5120729;27;20082;-60
2023/07/21 03:43:24;;;;;;;0.10;0.10;;;;;;;;;;5111013;28;20044;-60
2023/07/21 03:45:55;;;;;;;0.10;0.10;;;;;;;;;;5130439;28;20467;-61
2023/07/21 03:48:21;;;;;;;0.10;0.10;;;;;;;;;;5131475;28;20472;-60
2023/07/21 03:50:46;;;;;;;0.10;0.10;;;;;;;;;;5132684;27;20096;-60
2023/07/21 03:53:12;;;;;;;0.10;0.10;;;;;;;;;;5134900;28;20050;-60
2023/07/21 03:55:56;;;;;;;0.10;0.10;;;;;;;;;;5134594;28;20059;-60
2023/07/21 03:58:21;;;;;;;0.10;0.10;;;;;;;;;;5134299;28;20104;-60
2023/07/21 04:00:47;;;;;;;0.10;0.10;;;;;;;;;;5134270;27;20133;-61
2023/07/21 04:03:13;;;;;;;0.10;0.10;;;;;;;;;;5134372;28;20058;-61
2023/07/21 04:05:39;;;;;;;0.10;0.10;;;;;;;;;;5134796;28;20479;-61
2023/07/21 04:08:05;;;;;;;0.10;0.10;;;;;;;;;;5134673;28;20563;-60
2023/07/21 04:10:30;;;;;;;0.10;0.10;;;;;;;;;;5134119;28;20057;-61
2023/07/21 04:12:56;;;;;;;0.10;0.10;;;;;;;;;;5134419;28;20062;-61
2023/07/21 04:15:22;;;;;;;0.10;0.10;;;;;;;;;;5134628;28;20047;-61
2023/07/21 04:17:48;;;;;;;0.10;0.10;;;;;;;;;;5134456;28;20472;-60
2023/07/21 04:20:13;;;;;;;0.10;0.10;;;;;;;;;;5133666;28;20058;-60
2023/07/21 04:22:39;;;;;;;0.10;0.10;;;;;;;;;;5133877;28;20146;-61
2023/07/21 04:25:05;;;;;;;0.10;0.10;;;;;;;;;;5133850;28;20051;-60
2023/07/21 04:27:30;;;;;;;0.10;0.10;;;;;;;;;;5133211;28;20091;-61
2023/07/21 04:29:56;;;;;;;0.10;0.10;;;;;;;;;;5132255;28;20051;-61
2023/07/21 04:32:21;;;;;;;0.15;0.15;;;;;;;;;;5132538;28;20467;-61
2023/07/21 04:34:47;;;;;;;0.10;0.10;;;;;;;;;;5133663;27;20087;-61
2023/07/21 04:37:13;;;;;;;0.10;0.10;;;;;;;;;;5134043;27;20043;-61
2023/07/21 04:39:40;;;;;;;0.10;0.10;;;;;;;;;;5135494;27;20451;-61
2023/07/21 04:42:05;;;;;;;0.10;0.10;;;;;;;;;;5132796;28;20536;-61
2023/07/21 04:44:31;;;;;;;0.10;0.10;;;;;;;;;;5133807;28;20047;-61
2023/07/21 04:46:56;;;;;;;0.10;0.10;;;;;;;;;;5132741;28;20406;-60
2023/07/21 04:49:22;;;;;;;0.10;0.10;;;;;;;;;;5133290;27;20462;-60
2023/07/21 04:51:48;;;;;;;0.10;0.10;;;;;;;;;;5115167;27;20043;-60
2023/07/21 04:54:13;;;;;;;0.10;0.10;;;;;;;;;;5112478;28;20079;-60
2023/07/21 04:56:39;;;;;;;0.10;0.10;;;;;;;;;;5113004;28;20484;-61
2023/07/21 04:59:04;;;;;;;0.10;0.10;;;;;;;;;;5112601;28;20048;-61
2023/07/21 05:01:31;;;;;;;0.10;0.10;;;;;;;;;;5111988;28;20047;-61
2023/07/21 05:03:57;;;;;;;0.10;0.10;;;;;;;;;;5120765;28;20051;-61
2023/07/21 05:06:23;;;;;;;0.10;0.10;;;;;;;;;;5113290;28;20491;-60
2023/07/21 05:08:49;;;;;;;0.10;0.10;;;;;;;;;;5113201;28;20189;-60
2023/07/21 05:11:15;;;;;;;0.10;0.10;;;;;;;;;;5125950;28;20043;-61
2023/07/21 05:13:40;;;;;;;0.10;0.10;;;;;;;;;;5133474;28;20062;-60
2023/07/21 05:16:06;;;;;;;0.10;0.10;;;;;;;;;;5133469;28;20051;-61
2023/07/21 05:18:32;;;;;;;0.10;0.10;;;;;;;;;;5133732;28;20047;-59
2023/07/21 05:20:57;;;;;;;0.10;0.10;;;;;;;;;;5132742;28;20080;-60
2023/07/21 05:23:23;;;;;;;0.10;0.10;;;;;;;;;;5133293;28;20054;-60
2023/07/21 05:25:56;;;;;;;0.10;0.10;;;;;;;;;;5133242;28;20050;-61
2023/07/21 05:28:22;;;;;;;0.13;0.13;;;;;;;;;;5133086;28;20051;-61
2023/07/21 05:30:48;;;;;;;0.10;0.10;;;;;;;;;;5123461;27;20040;-61
2023/07/21 05:33:14;;;;;;;0.10;0.10;;;;;;;;;;5126590;28;20055;-60
2023/07/21 05:35:39;;;;;;;0.10;0.10;;;;;;;;;;5132918;27;20039;-60
2023/07/21 05:38:05;;;;;;;0.10;0.10;;;;;;;;;;5124707;27;20061;-61
2023/07/21 05:40:30;;;;;;;0.10;0.10;;;;;;;;;;5136350;27;20051;-61
2023/07/21 05:42:56;;;;;;;0.10;0.10;;;;;;;;;;5120192;28;20096;-60
2023/07/21 05:45:21;;;;;;;0.10;0.10;;;;;;;;;;5133094;28;20047;-61
2023/07/21 05:47:49;;;;;;;0.10;0.10;;;;;;;;;;5131971;28;20499;-60
2023/07/21 05:50:15;;;;;;;0.10;0.10;;;;;;;;;;5132391;28;20062;-60
2023/07/21 05:52:41;;;;;;;0.10;0.10;;;;;;;;;;5133222;28;20051;-60
2023/07/21 05:55:06;;;;;;;0.10;0.10;;;;;;;;;;5132744;28;20441;-60
2023/07/21 05:57:32;;;;;;;0.10;0.10;;;;;;;;;;5133177;28;20043;-61
2023/07/21 05:59:58;;;;;;;0.10;0.10;;;;;;;;;;5132419;28;20138;-61
2023/07/21 06:02:23;;;;;;;0.10;0.10;;;;;;;;;;5132582;27;20039;-60
2023/07/21 06:04:49;;;;;;;0.10;0.10;;;;;;;;;;5132959;28;20051;-61
2023/07/21 06:07:15;;;;;;;0.10;0.10;;;;;;;;;;5132405;27;20183;-61
2023/07/21 06:09:40;;;;;;;0.10;0.10;;;;;;;;;;5131945;27;20068;-61
2023/07/21 06:12:06;;;;;;;0.10;0.10;;;;;;;;;;5130761;27;20126;-60
2023/07/21 06:14:33;;;;;;;0.13;0.13;;;;;;;;;;5131986;28;20384;-61
2023/07/21 06:16:59;;;;;;;0.10;0.10;;;;;;;;;;5132516;28;20063;-60
2023/07/21 06:19:25;;;;;;;0.10;0.10;;;;;;;;;;5132429;28;20403;-60
2023/07/21 06:21:51;;;;;;;0.10;0.10;;;;;;;;;;5131879;28;20050;-60
2023/07/21 06:24:16;;;;;;;0.10;0.10;;;;;;;;;;5132053;28;20077;-60
2023/07/21 06:26:42;;;;;;;0.10;0.10;;;;;;;;;;5131996;28;20406;-60
2023/07/21 06:29:07;;;;;;;0.10;0.10;;;;;;;;;;5131592;28;20472;-60
2023/07/21 06:31:33;;;;;;;0.10;0.10;;;;;;;;;;5131011;28;20043;-61
2023/07/21 06:33:59;;;;;;;0.10;0.10;;;;;;;;;;5131113;28;20054;-60
2023/07/21 06:36:25;;;;;;;0.10;0.10;;;;;;;;;;5131110;27;20054;-61
2023/07/21 06:38:50;;;;;;;0.10;0.10;;;;;;;;;;5111462;28;20047;-60
2023/07/21 06:41:16;;;;;;;0.10;0.10;;;;;;;;;;5110458;28;20465;-60
2023/07/21 06:43:42;;;;;;;0.10;0.10;;;;;;;;;;5110888;28;20453;-61
2023/07/21 06:46:07;;;;;;;0.10;0.10;;;;;;;;;;5130299;28;20047;-61
2023/07/21 06:48:33;;;;;;;0.10;0.10;;;;;;;;;;5131540;28;20054;-59
2023/07/21 06:50:58;;;;;;;0.10;0.10;;;;;;;;;;5130574;28;20055;-60
2023/07/21 06:53:24;;;;;;;0.10;0.10;;;;;;;;;;5131479;28;20099;-60
2023/07/21 06:55:50;;;;;;;0.10;0.10;;;;;;;;;;5131401;28;20054;-60
2023/07/21 06:58:16;;;;;;;0.10;0.10;;;;;;;;;;5131537;28;20262;-60
2023/07/21 07:00:41;;;;;;;0.10;0.10;;;;;;;;;;5130938;27;20297;-61
2023/07/21 07:03:07;;;;;;;0.10;0.10;;;;;;;;;;5131168;28;20055;-60
2023/07/21 07:05:32;;;;;;;0.10;0.10;;;;;;;;;;5131740;28;20411;-61
2023/07/21 07:07:58;;;;;;;0.10;0.10;;;;;;;;;;5131168;28;20407;-61
2023/07/21 07:10:24;;;;;;;0.10;0.10;;;;;;;;;;5125166;27;20058;-60
2023/07/21 07:12:50;;;;;;;0.10;0.10;;;;;;;;;;5111454;28;20051;-61
2023/07/21 07:15:16;;;;;;;0.10;0.10;;;;;;;;;;5110688;28;20055;-60
2023/07/21 07:17:41;;;;;;;0.10;0.10;;;;;;;;;;5111214;28;20047;-60
2023/07/21 07:20:09;;;;;;;0.10;0.10;;;;;;;;;;5110791;28;20090;-60
2023/07/21 07:22:36;;;;;;;0.10;0.10;;;;;;;;;;5111082;28;20052;-60
2023/07/21 07:25:01;;;;;;;0.10;0.10;;;;;;;;;;5113744;28;20074;-61
2023/07/21 07:27:30;;;;;;;0.10;0.10;;;;;;;;;;5114781;28;20043;-61
2023/07/21 07:29:56;;;;;;;0.10;0.10;;;;;;;;;;5114343;28;20055;-61
2023/07/21 07:32:21;;;;;;;0.10;0.10;;;;;;;;;;5121375;28;20043;-60
2023/07/21 07:34:47;;;;;;;0.10;0.10;;;;;;;;;;5135002;28;20057;-61
2023/07/21 07:37:13;;;;;;;0.10;0.10;;;;;;;;;;5141134;27;20517;-60
2023/07/21 07:39:39;;;;;;;0.10;0.10;;;;;;;;;;5155892;27;20402;-60
2023/07/21 07:42:04;;;;;;;0.10;0.10;;;;;;;;;;5134308;27;20054;-60
2023/07/21 07:44:33;;;;;;;0.10;0.10;;;;;;;;;;5135132;28;20471;-60
2023/07/21 07:46:59;;;;;;;0.10;0.10;;;;;;;;;;5134271;28;20043;-59
2023/07/21 07:49:24;;;;;;;0.10;0.10;;;;;;;;;;5134226;27;20047;-60
2023/07/21 07:51:50;;;;;;;0.10;0.10;;;;;;;;;;5126367;27;20403;-60
2023/07/21 07:54:15;;;;;;;0.10;0.10;;;;;;;;;;5134756;27;20043;-61
2023/07/21 07:56:41;;;;;;;0.10;0.10;;;;;;;;;;5134764;27;20051;-61
2023/07/21 07:59:07;;;;;;;0.10;0.10;;;;;;;;;;5134779;27;20123;-61
2023/07/21 08:01:32;;;;;;;0.10;0.10;;;;;;;;;;5117935;27;20054;-60
2023/07/21 08:03:58;;;;;;;0.10;0.10;;;;;;;;;;5114141;28;20471;-61
2023/07/21 08:06:24;;;;;;;0.10;0.10;;;;;;;;;;5114371;28;20050;-61
2023/07/21 08:08:49;;;;;;;0.10;0.10;;;;;;;;;;5119416;28;20039;-61
2023/07/21 08:11:15;;;;;;;0.10;0.10;;;;;;;;;;5129540;28;20475;-60
2023/07/21 08:13:41;;;;;;;0.10;0.10;;;;;;;;;;5134268;27;20043;-61
2023/07/21 08:16:09;;;;;;;0.10;0.10;;;;;;;;;;5134132;28;20047;-60
2023/07/21 08:18:35;;;;;;;0.10;0.10;;;;;;;;;;5134633;27;20058;-60
2023/07/21 08:21:15;;;;;;;0.10;0.10;;;;;;;;;;5133026;27;20075;-60
2023/07/21 08:23:41;;;;;;;0.10;0.10;;;;;;;;;;5134578;28;20051;-60
2023/07/21 08:26:06;;;;;;;0.10;0.10;;;;;;;;;;5134278;28;20059;-60
2023/07/21 08:28:32;;;;;;;0.10;0.10;;;;;;;;;;5134332;28;20047;-60
2023/07/21 08:30:57;;;;;;;0.10;0.10;;;;;;;;;;5133326;28;20051;-60
2023/07/21 08:33:25;;;;;;;0.10;0.10;;;;;;;;;;5133335;28;20047;-60
2023/07/21 08:35:51;;;;;;;0.10;0.10;;;;;;;;;;5128617;27;20396;-60
2023/07/21 08:38:16;;;;;;;0.10;0.10;;;;;;;;;;5128463;27;20047;-60
2023/07/21 08:40:42;;;;;;;0.10;0.10;;;;;;;;;;5124330;27;20104;-61
2023/07/21 08:43:08;;;;;;;0.10;0.10;;;;;;;;;;5113321;28;20058;-60
2023/07/21 08:45:34;;;;;;;0.10;0.10;;;;;;;;;;5112763;28;20055;-60
2023/07/21 08:48:06;;;;;;;0.10;0.10;;;;;;;;;;5117848;28;20051;-60
2023/07/21 08:50:33;;;;;;;0.10;0.10;;;;;;;;;;5125454;27;20415;-60
2023/07/21 08:52:59;;;;;;;0.10;0.10;;;;;;;;;;5117900;28;20046;-61
2023/07/21 08:55:25;;;;;;;0.10;0.10;;;;;;;;;;5130985;28;20120;-61
2023/07/21 08:57:55;;;;;;;0.10;0.10;;;;;;;;;;5133554;28;20054;-60
2023/07/21 09:00:23;;;;;;;0.10;0.10;;;;;;;;;;5132956;27;20039;-60
2023/07/21 09:02:48;;;;;;;0.10;0.10;;;;;;;;;;5133303;28;20090;-60
2023/07/21 09:05:15;;;;;;;0.10;0.10;;;;;;;;;;5133328;28;20488;-61
2023/07/21 09:07:41;;;;;;;0.10;0.10;;;;;;;;;;5133081;28;20471;-61
2023/07/21 09:10:08;;;;;;;0.10;0.10;;;;;;;;;;5132420;28;20429;-61
2023/07/21 09:12:35;;;;;;;0.10;0.10;;;;;;;;;;5133557;28;20043;-60
2023/07/21 09:15:06;;;;;;;0.10;0.10;;;;;;;;;;5133087;28;20466;-60
2023/07/21 09:17:33;;;;;;;0.10;0.10;;;;;;;;;;5133301;28;20398;-60
2023/07/21 09:19:58;;;;;;;0.10;0.10;;;;;;;;;;5133222;28;20047;-60
2023/07/21 09:22:24;;;;;;;0.10;0.10;;;;;;;;;;5133449;28;20047;-61
2023/07/21 09:24:50;;;;;;;0.10;0.10;;;;;;;;;;5133451;28;20047;-60
2023/07/21 09:27:17;;;;;;;0.10;0.10;;;;;;;;;;5132668;28;20051;-61
2023/07/21 09:29:43;;;;;;;0.10;0.10;;;;;;;;;;5133024;28;20096;-61
2023/07/21 09:32:13;;;;;;;0.10;0.10;;;;;;;;;;5133362;28;20046;-61
2023/07/21 09:34:58;;;;;;;0.10;0.10;;;;;;;;;;5133058;28;20530;-60
2023/07/21 09:37:26;;;;;;;0.10;0.10;;;;;;;;;;5115852;28;20054;-60
2023/07/21 09:39:53;;;;;;;0.10;0.10;;;;;;;;;;5120602;28;20186;-60
2023/07/21 09:42:21;;;;;;;0.10;0.10;;;;;;;;;;5112388;28;20479;-60
2023/07/21 09:44:47;;;;;;;0.10;0.10;;;;;;;;;;5112424;28;20421;-60
2023/07/21 09:47:15;;;;;;;0.10;0.10;;;;;;;;;;5111529;28;20044;-61
2023/07/21 09:49:40;;;;;;;0.10;0.10;;;;;;;;;;5116124;28;20047;-60
2023/07/21 09:52:06;;;;;;;0.10;0.10;;;;;;;;;;5132509;28;20062;-60
2023/07/21 09:54:32;;;;;;;0.10;0.10;;;;;;;;;;5132420;28;20450;-60
2023/07/21 09:57:02;;;;;;;0.10;0.10;;;;;;;;;;5132147;28;20097;-61
2023/07/21 09:59:32;;;;;;;0.10;0.10;;;;;;;;;;5132715;28;20242;-60
2023/07/21 10:01:57;;;;;;;0.10;0.10;;;;;;;;;;5131767;27;20050;-61
2023/07/21 10:04:23;;;;;;;0.10;0.10;;;;;;;;;;5132459;28;20116;-60
2023/07/21 10:06:50;;;;;;;0.10;0.10;;;;;;;;;;5132285;28;20047;-60
2023/07/21 10:09:16;;;;;;;0.10;0.10;;;;;;;;;;5132014;28;20043;-61
2023/07/21 10:11:43;;;;;;;0.10;0.10;;;;;;;;;;5131474;28;20047;-61
2023/07/21 10:14:28;;;;;;;0.10;0.10;;;;;;;;;;5132097;28;20092;-60
2023/07/21 10:16:54;;;;;;;0.10;0.10;;;;;;;;;;5116152;28;20527;-60
2023/07/21 10:19:22;;;;;;;0.10;0.10;;;;;;;;;;5132077;28;20079;-61
2023/07/21 10:21:49;;;;;;;0.10;0.10;;;;;;;;;;5131672;28;20039;-60
2023/07/21 10:24:32;;;;;;;0.10;0.10;;;;;;;;;;5132304;28;20055;-60
2023/07/21 10:27:01;;;;;;;0.10;0.10;;;;;;;;;;5131695;28;20047;-60
2023/07/21 10:29:27;;;;;;;0.10;0.10;;;;;;;;;;5132133;28;20047;-60
2023/07/21 10:31:53;;;;;;;0.10;0.10;;;;;;;;;;5131522;28;20073;-61
2023/07/21 10:34:23;;;;;;;0.10;0.10;;;;;;;;;;5131279;28;20047;-60
2023/07/21 10:36:55;;;;;;;0.10;0.10;;;;;;;;;;5143251;27;20087;-60
2023/07/21 10:39:23;;;;;;;0.10;0.10;;;;;;;;;;5130444;28;20039;-61
2023/07/21 10:41:50;;;;;;;0.10;0.10;;;;;;;;;;5123868;27;20047;-61
2023/07/21 10:44:16;;;;;;;0.10;0.10;;;;;;;;;;5132309;27;20309;-60
2023/07/21 10:46:43;;;;;;;0.10;0.10;;;;;;;;;;5132173;27;20051;-61
2023/07/21 10:49:09;;;;;;;0.10;0.10;;;;;;;;;;5131972;27;20115;-61
2023/07/21 10:51:36;;;;;;;0.10;0.10;;;;;;;;;;5122163;27;20047;-60
2023/07/21 10:54:02;;;;;;;0.10;0.10;;;;;;;;;;5131767;27;20043;-60
2023/07/21 10:56:28;;;;;;;0.10;0.10;;;;;;;;;;5131587;27;20095;-61
2023/07/21 10:58:54;;;;;;;0.10;0.10;;;;;;;;;;5131275;27;20403;-60
2023/07/21 11:01:19;;;;;;;0.10;0.10;;;;;;;;;;5131595;27;20051;-60
2023/07/21 11:03:46;;;;;;;0.10;0.10;;;;;;;;;;5131778;28;20380;-60
2023/07/21 11:06:12;;;;;;;0.10;0.10;;;;;;;;;;5131753;28;20467;-60
2023/07/21 11:08:38;;;;;;;0.10;0.10;;;;;;;;;;5131772;28;20055;-61
2023/07/21 11:11:05;;;;;;;0.10;0.10;;;;;;;;;;5109752;28;21117;-61
2023/07/21 11:13:30;;;;;;;0.10;0.10;;;;;;;;;;5111523;28;20062;-61
2023/07/21 11:15:56;;;;;;;0.10;0.10;;;;;;;;;;5110740;28;20075;-60
2023/07/21 11:18:22;;;;;;;0.10;0.10;;;;;;;;;;5110837;28;20052;-61
2023/07/21 11:20:49;;;;;;;0.10;0.10;;;;;;;;;;5110972;28;20100;-59
2023/07/21 11:23:14;;;;;;;0.10;0.10;;;;;;;;;;5110984;28;20048;-60
2023/07/21 11:25:40;;;;;;;0.10;0.10;;;;;;;;;;5111001;28;20048;-60
2023/07/21 11:28:06;;;;;;;0.10;0.10;;;;;;;;;;5111474;28;20408;-60
2023/07/21 11:30:31;;;;;;;0.10;0.10;;;;;;;;;;5110700;28;20495;-60
2023/07/21 11:33:12;;;;;;;0.10;0.10;;;;;;;;;;5111088;28;20048;-60
2023/07/21 11:35:45;;;;;;;0.10;0.10;;;;;;;;;;5104236;28;20108;-61
2023/07/21 11:38:10;;;;;;;0.10;0.10;;;;;;;;;;5111364;28;20055;-61
2023/07/21 11:40:36;;;;;;;0.10;0.10;;;;;;;;;;5109931;28;20048;-60
2023/07/21 11:43:05;;;;;;;0.10;0.10;;;;;;;;;;5110290;28;20690;-60
2023/07/21 11:45:33;;;;;;;0.17;0.17;;;;;;;;;;5110613;28;20059;-61
2023/07/21 11:48:00;;;;;;;0.10;0.10;;;;;;;;;;5110834;28;20051;-60
2023/07/21 11:50:28;;;;;;;0.10;0.10;;;;;;;;;;5103992;28;20048;-60
2023/07/21 11:52:53;;;;;;;0.10;0.10;;;;;;;;;;5092895;28;20381;-61
2023/07/21 11:55:19;;;;;;;0.20;0.20;;;;;;;;;;5109951;28;20486;-61
2023/07/21 11:57:44;;;;;;;0.10;0.10;;;;;;;;;;5110676;28;20074;-60
2023/07/21 12:00:11;;;;;;;0.10;0.10;;;;;;;;;;5108347;28;20078;-61
2023/07/21 12:02:39;;;;;;;0.10;0.10;;;;;;;;;;5110561;28;20094;-61
2023/07/21 12:05:05;;;;;;;0.10;0.10;;;;;;;;;;5110739;28;20388;-61
2023/07/21 12:07:30;;;;;;;0.10;0.10;;;;;;;;;;5110347;28;20503;-60
2023/07/21 12:09:56;;;;;;;0.10;0.10;;;;;;;;;;5109816;28;20055;-61
2023/07/21 12:12:21;;;;;;;0.10;0.10;;;;;;;;;;5112603;28;20066;-61
2023/07/21 12:14:47;;;;;;;0.10;0.10;;;;;;;;;;5113918;28;20047;-61
2023/07/21 12:17:14;;;;;;;0.10;0.10;;;;;;;;;;5113497;28;20086;-60
2023/07/21 12:19:43;;;;;;;0.10;0.10;;;;;;;;;;5113555;28;20512;-60
2023/07/21 12:22:10;;;;;;;0.10;0.10;;;;;;;;;;5113836;28;20487;-60
2023/07/21 12:24:36;;;;;;;0.10;0.10;;;;;;;;;;5113732;28;20157;-61
2023/07/21 12:27:02;;;;;;;0.10;0.10;;;;;;;;;;5113904;28;20056;-61
2023/07/21 12:29:27;;;;;;;0.10;0.10;;;;;;;;;;5113655;28;20563;-60
2023/07/21 12:32:08;;;;;;;0.10;0.10;;;;;;;;;;5113586;28;20138;-60
2023/07/21 12:34:34;;;;;;;0.10;0.10;;;;;;;;;;5103771;27;20072;-60
2023/07/21 12:36:59;;;;;;;0.10;0.10;;;;;;;;;;5093344;28;20051;-60
2023/07/21 12:39:25;;;;;;;0.10;0.10;;;;;;;;;;5107372;28;20079;-61
2023/07/21 12:41:50;;;;;;;0.10;0.10;;;;;;;;;;5112219;28;20051;-60
2023/07/21 12:44:16;;;;;;;0.10;0.10;;;;;;;;;;5112148;28;20058;-60
2023/07/21 12:46:41;;;;;;;0.10;0.10;;;;;;;;;;5112254;28;20073;-61
2023/07/21 12:49:08;;;;;;;0.10;0.10;;;;;;;;;;5113084;28;20460;-60
2023/07/21 12:51:33;;;;;;;0.10;0.10;;;;;;;;;;5112563;28;20511;-61
2023/07/21 12:53:58;;;;;;;0.10;0.10;;;;;;;;;;5112990;28;20044;-61
2023/07/21 12:56:24;;;;;;;0.10;0.10;;;;;;;;;;5112491;28;20048;-61
2023/07/21 12:58:50;;;;;;;0.10;0.10;;;;;;;;;;5112786;28;20112;-61
2023/07/21 13:01:16;;;;;;;0.10;0.10;;;;;;;;;;5112175;28;20044;-60
2023/07/21 13:03:41;;;;;;;0.10;0.10;;;;;;;;;;5112834;28;20048;-60
2023/07/21 13:06:07;;;;;;;0.10;0.10;;;;;;;;;;5112798;28;20048;-60
2023/07/21 13:08:33;;;;;;;0.10;0.10;;;;;;;;;;5112950;28;20096;-60
2023/07/21 13:10:58;;;;;;;0.10;0.10;;;;;;;;;;5112370;28;20415;-60
2023/07/21 13:13:24;;;;;;;0.10;0.10;;;;;;;;;;5112594;28;20412;-60
2023/07/21 13:15:49;;;;;;;0.10;0.10;;;;;;;;;;5111749;28;20415;-60
2023/07/21 13:18:15;;;;;;;0.10;0.10;;;;;;;;;;5112329;28;20089;-59
2023/07/21 13:20:41;;;;;;;0.10;0.10;;;;;;;;;;5112723;28;20476;-60
2023/07/21 13:23:06;;;;;;;0.10;0.10;;;;;;;;;;5112701;28;20051;-60
2023/07/21 13:25:43;;;;;;;0.10;0.10;;;;;;;;;;5112946;28;20590;-60
2023/07/21 13:28:08;;;;;;;0.10;0.10;;;;;;;;;;5112795;28;20051;-60
2023/07/21 13:30:34;;;;;;;0.10;0.10;;;;;;;;;;5112517;28;20048;-60
2023/07/21 13:32:59;;;;;;;0.10;0.10;;;;;;;;;;5112141;28;20074;-60
2023/07/21 13:35:25;;;;;;;0.10;0.10;;;;;;;;;;5130094;28;20058;-60
2023/07/21 13:37:51;;;;;;;0.10;0.10;;;;;;;;;;5133233;28;20039;-60
2023/07/21 13:40:16;;;;;;;0.10;0.10;;;;;;;;;;5122100;28;20394;-60
2023/07/21 13:42:42;;;;;;;0.10;0.10;;;;;;;;;;5112570;28;20385;-59
2023/07/21 13:45:07;;;;;;;0.10;0.10;;;;;;;;;;5112018;28;20081;-60
2023/07/21 13:47:33;;;;;;;0.10;0.10;;;;;;;;;;5111400;28;20039;-60
2023/07/21 13:49:59;;;;;;;0.10;0.10;;;;;;;;;;5109491;28;20058;-60
2023/07/21 13:52:25;;;;;;;0.10;0.10;;;;;;;;;;5092374;28;20048;-60
2023/07/21 13:54:51;;;;;;;0.10;0.10;;;;;;;;;;5091951;28;20055;-60
2023/07/21 13:57:17;;;;;;;0.10;0.10;;;;;;;;;;5100824;28;20055;-60
2023/07/21 13:59:43;;;;;;;0.10;0.10;;;;;;;;;;5112115;28;20043;-60
2023/07/21 14:02:08;;;;;;;0.10;0.10;;;;;;;;;;5111684;28;20457;-60
2023/07/21 14:04:34;;;;;;;0.10;0.10;;;;;;;;;;5110571;28;20054;-60
2023/07/21 14:07:00;;;;;;;0.10;0.10;;;;;;;;;;5112373;28;20446;-60
2023/07/21 14:09:25;;;;;;;0.10;0.10;;;;;;;;;;5112274;28;20044;-60
2023/07/21 14:11:51;;;;;;;0.10;0.10;;;;;;;;;;5111757;28;20048;-59
2023/07/21 14:14:17;;;;;;;0.10;0.10;;;;;;;;;;5111802;28;20073;-59
2023/07/21 14:16:43;;;;;;;0.10;0.10;;;;;;;;;;5111808;28;20597;-60
2023/07/21 14:19:08;;;;;;;0.10;0.10;;;;;;;;;;5111915;28;20043;-60
2023/07/21 14:21:34;;;;;;;0.10;0.10;;;;;;;;;;5111499;28;20051;-61
2023/07/21 14:24:00;;;;;;;0.10;0.10;;;;;;;;;;5111832;28;20044;-60
2023/07/21 14:26:29;;;;;;;0.10;0.10;;;;;;;;;;5111809;28;20051;-60
2023/07/21 14:28:54;;;;;;;0.10;0.10;;;;;;;;;;5112037;28;20124;-60
2023/07/21 14:31:20;;;;;;;0.10;0.10;;;;;;;;;;5111427;28;20044;-60
2023/07/21 14:33:47;;;;;;;0.10;0.10;;;;;;;;;;5110801;27;20138;-60
2023/07/21 14:36:12;;;;;;;0.25;0.20;;;;;;;;;;5111916;28;20047;-60
2023/07/21 14:38:38;;;;;;;0.10;0.10;;;;;;;;;;5111722;28;20130;-60